sensor_id;sensor_type;location;lat;lon;timestamp;P1;durP1;ratioP1;P2;durP2;ratioP2
15848;SDS011;8024;48.708;9.394;2022-10-16T00:01:06;3.03;;;1.80;;
15848;SDS011;8024;48.708;9.394;2022-10-16T00:03:36;3.63;;;1.47;;
15848;SDS011;8024;48.708;9.394;2022-10-16T00:06:03;3.10;;;1.93;;
15848;SDS011;8024;48.708;9.394;2022-10-16T00:08:31;4.53;;;1.87;;
15848;SDS011;8024;48.708;9.394;2022-10-16T00:10:59;3.47;;;2.07;;
15848;SDS011;8024;48.708;9.394;2022-10-16T00:13:29;3.03;;;1.83;;
15848;SDS011;8024;48.708;9.394;2022-10-16T00:15:57;3.33;;;2.10;;
15848;SDS011;8024;48.708;9.394;2022-10-16T00:18:25;7.67;;;2.50;;
15848;SDS011;8024;48.708;9.394;2022-10-16T00:20:53;3.47;;;2.10;;
15848;SDS011;8024;48.708;9.394;2022-10-16T00:23:21;3.17;;;2.20;;
15848;SDS011;8024;48.708;9.394;2022-10-16T00:25:55;3.57;;;1.93;;
15848;SDS011;8024;48.708;9.394;2022-10-16T00:28:22;3.10;;;2.03;;
15848;SDS011;8024;48.708;9.394;2022-10-16T00:30:51;6.50;;;2.17;;
15848;SDS011;8024;48.708;9.394;2022-10-16T00:33:19;5.17;;;2.10;;
15848;SDS011;8024;48.708;9.394;2022-10-16T00:35:47;2.60;;;2.00;;
15848;SDS011;8024;48.708;9.394;2022-10-16T00:38:15;5.00;;;1.80;;
15848;SDS011;8024;48.708;9.394;2022-10-16T00:40:42;5.13;;;2.77;;
15848;SDS011;8024;48.708;9.394;2022-10-16T00:43:12;2.27;;;2.07;;
15848;SDS011;8024;48.708;9.394;2022-10-16T00:45:40;3.33;;;2.13;;
15848;SDS011;8024;48.708;9.394;2022-10-16T00:48:11;2.73;;;2.60;;
15848;SDS011;8024;48.708;9.394;2022-10-16T00:50:40;3.47;;;2.83;;
15848;SDS011;8024;48.708;9.394;2022-10-16T00:53:09;3.77;;;2.10;;
15848;SDS011;8024;48.708;9.394;2022-10-16T00:55:38;4.60;;;1.90;;
15848;SDS011;8024;48.708;9.394;2022-10-16T00:58:05;5.10;;;1.70;;
15848;SDS011;8024;48.708;9.394;2022-10-16T01:00:32;8.73;;;2.10;;
15848;SDS011;8024;48.708;9.394;2022-10-16T01:03:00;2.90;;;1.70;;
15848;SDS011;8024;48.708;9.394;2022-10-16T01:05:30;3.17;;;1.47;;
15848;SDS011;8024;48.708;9.394;2022-10-16T01:08:08;3.63;;;1.70;;
15848;SDS011;8024;48.708;9.394;2022-10-16T01:10:43;2.70;;;1.53;;
15848;SDS011;8024;48.708;9.394;2022-10-16T01:13:21;1.53;;;1.43;;
15848;SDS011;8024;48.708;9.394;2022-10-16T01:15:52;2.50;;;2.30;;
15848;SDS011;8024;48.708;9.394;2022-10-16T01:18:26;4.27;;;3.10;;
15848;SDS011;8024;48.708;9.394;2022-10-16T01:21:02;4.70;;;2.90;;
15848;SDS011;8024;48.708;9.394;2022-10-16T01:23:36;4.83;;;2.93;;
15848;SDS011;8024;48.708;9.394;2022-10-16T01:26:19;3.43;;;2.43;;
15848;SDS011;8024;48.708;9.394;2022-10-16T01:28:55;4.80;;;3.13;;
15848;SDS011;8024;48.708;9.394;2022-10-16T01:31:25;4.63;;;2.73;;
15848;SDS011;8024;48.708;9.394;2022-10-16T01:33:56;5.57;;;3.13;;
15848;SDS011;8024;48.708;9.394;2022-10-16T01:36:29;4.80;;;3.07;;
15848;SDS011;8024;48.708;9.394;2022-10-16T01:39:01;6.13;;;3.47;;
15848;SDS011;8024;48.708;9.394;2022-10-16T01:41:30;5.80;;;3.17;;
15848;SDS011;8024;48.708;9.394;2022-10-16T01:44:01;3.53;;;3.23;;
15848;SDS011;8024;48.708;9.394;2022-10-16T01:46:32;4.47;;;3.07;;
15848;SDS011;8024;48.708;9.394;2022-10-16T01:49:00;8.87;;;4.20;;
15848;SDS011;8024;48.708;9.394;2022-10-16T01:51:29;4.30;;;3.77;;
15848;SDS011;8024;48.708;9.394;2022-10-16T01:53:57;5.23;;;3.77;;
15848;SDS011;8024;48.708;9.394;2022-10-16T01:56:26;5.23;;;3.40;;
15848;SDS011;8024;48.708;9.394;2022-10-16T01:58:55;2.70;;;1.90;;
15848;SDS011;8024;48.708;9.394;2022-10-16T02:01:29;1.47;;;1.33;;
15848;SDS011;8024;48.708;9.394;2022-10-16T02:04:01;3.47;;;1.20;;
15848;SDS011;8024;48.708;9.394;2022-10-16T02:06:33;3.10;;;1.30;;
15848;SDS011;8024;48.708;9.394;2022-10-16T02:09:00;3.97;;;0.80;;
15848;SDS011;8024;48.708;9.394;2022-10-16T02:11:28;3.00;;;1.17;;
15848;SDS011;8024;48.708;9.394;2022-10-16T02:13:57;2.53;;;1.37;;
15848;SDS011;8024;48.708;9.394;2022-10-16T02:16:33;4.03;;;1.20;;
15848;SDS011;8024;48.708;9.394;2022-10-16T02:19:02;1.90;;;1.00;;
15848;SDS011;8024;48.708;9.394;2022-10-16T02:21:32;2.07;;;1.20;;
15848;SDS011;8024;48.708;9.394;2022-10-16T02:24:07;1.00;;;0.80;;
15848;SDS011;8024;48.708;9.394;2022-10-16T02:26:41;2.43;;;1.47;;
15848;SDS011;8024;48.708;9.394;2022-10-16T02:29:17;1.93;;;1.00;;
15848;SDS011;8024;48.708;9.394;2022-10-16T02:31:49;2.97;;;1.10;;
15848;SDS011;8024;48.708;9.394;2022-10-16T02:34:19;6.50;;;1.23;;
15848;SDS011;8024;48.708;9.394;2022-10-16T02:36:48;5.77;;;1.13;;
15848;SDS011;8024;48.708;9.394;2022-10-16T02:39:16;2.03;;;1.13;;
15848;SDS011;8024;48.708;9.394;2022-10-16T02:41:45;1.97;;;0.90;;
15848;SDS011;8024;48.708;9.394;2022-10-16T02:44:13;2.50;;;1.00;;
15848;SDS011;8024;48.708;9.394;2022-10-16T02:46:40;1.63;;;1.00;;
15848;SDS011;8024;48.708;9.394;2022-10-16T02:49:08;2.20;;;1.00;;
15848;SDS011;8024;48.708;9.394;2022-10-16T02:51:36;1.47;;;1.13;;
15848;SDS011;8024;48.708;9.394;2022-10-16T02:54:03;1.53;;;1.00;;
15848;SDS011;8024;48.708;9.394;2022-10-16T02:56:30;1.87;;;0.97;;
15848;SDS011;8024;48.708;9.394;2022-10-16T02:58:58;2.03;;;0.70;;
15848;SDS011;8024;48.708;9.394;2022-10-16T03:01:25;3.90;;;0.93;;
15848;SDS011;8024;48.708;9.394;2022-10-16T03:03:52;3.27;;;0.97;;
15848;SDS011;8024;48.708;9.394;2022-10-16T03:06:20;1.83;;;0.60;;
15848;SDS011;8024;48.708;9.394;2022-10-16T03:08:48;2.60;;;1.57;;
15848;SDS011;8024;48.708;9.394;2022-10-16T03:11:15;0.80;;;0.70;;
15848;SDS011;8024;48.708;9.394;2022-10-16T03:13:42;2.20;;;0.70;;
15848;SDS011;8024;48.708;9.394;2022-10-16T03:16:09;2.90;;;1.10;;
15848;SDS011;8024;48.708;9.394;2022-10-16T03:18:37;2.00;;;0.80;;
15848;SDS011;8024;48.708;9.394;2022-10-16T03:21:04;2.30;;;1.27;;
15848;SDS011;8024;48.708;9.394;2022-10-16T03:23:32;3.43;;;1.07;;
15848;SDS011;8024;48.708;9.394;2022-10-16T03:25:59;4.40;;;0.97;;
15848;SDS011;8024;48.708;9.394;2022-10-16T03:28:26;2.77;;;1.03;;
15848;SDS011;8024;48.708;9.394;2022-10-16T03:30:53;2.63;;;1.20;;
15848;SDS011;8024;48.708;9.394;2022-10-16T03:33:21;0.57;;;0.57;;
15848;SDS011;8024;48.708;9.394;2022-10-16T03:35:51;1.50;;;0.73;;
15848;SDS011;8024;48.708;9.394;2022-10-16T03:38:19;1.70;;;1.00;;
15848;SDS011;8024;48.708;9.394;2022-10-16T03:40:48;1.80;;;0.90;;
15848;SDS011;8024;48.708;9.394;2022-10-16T03:43:15;2.30;;;0.93;;
15848;SDS011;8024;48.708;9.394;2022-10-16T03:45:42;2.93;;;0.73;;
15848;SDS011;8024;48.708;9.394;2022-10-16T03:48:09;2.47;;;1.20;;
15848;SDS011;8024;48.708;9.394;2022-10-16T03:50:36;4.87;;;1.10;;
15848;SDS011;8024;48.708;9.394;2022-10-16T03:53:03;3.30;;;0.90;;
15848;SDS011;8024;48.708;9.394;2022-10-16T03:55:31;2.50;;;1.90;;
15848;SDS011;8024;48.708;9.394;2022-10-16T03:57:59;4.07;;;2.30;;
15848;SDS011;8024;48.708;9.394;2022-10-16T04:00:26;2.00;;;1.60;;
15848;SDS011;8024;48.708;9.394;2022-10-16T04:02:53;1.73;;;1.07;;
15848;SDS011;8024;48.708;9.394;2022-10-16T04:05:20;2.33;;;1.10;;
15848;SDS011;8024;48.708;9.394;2022-10-16T04:07:48;3.23;;;1.57;;
15848;SDS011;8024;48.708;9.394;2022-10-16T04:10:15;5.10;;;1.53;;
15848;SDS011;8024;48.708;9.394;2022-10-16T04:12:42;3.60;;;1.20;;
15848;SDS011;8024;48.708;9.394;2022-10-16T04:15:11;4.17;;;1.40;;
15848;SDS011;8024;48.708;9.394;2022-10-16T04:17:38;1.87;;;1.10;;
15848;SDS011;8024;48.708;9.394;2022-10-16T04:20:05;2.80;;;1.47;;
15848;SDS011;8024;48.708;9.394;2022-10-16T04:22:33;4.13;;;1.50;;
15848;SDS011;8024;48.708;9.394;2022-10-16T04:25:00;1.00;;;1.00;;
15848;SDS011;8024;48.708;9.394;2022-10-16T04:27:27;2.07;;;1.20;;
15848;SDS011;8024;48.708;9.394;2022-10-16T04:29:56;1.30;;;1.20;;
15848;SDS011;8024;48.708;9.394;2022-10-16T04:32:24;1.13;;;1.07;;
15848;SDS011;8024;48.708;9.394;2022-10-16T04:34:52;1.83;;;0.83;;
15848;SDS011;8024;48.708;9.394;2022-10-16T04:37:22;1.77;;;0.80;;
15848;SDS011;8024;48.708;9.394;2022-10-16T04:39:50;1.77;;;1.00;;
15848;SDS011;8024;48.708;9.394;2022-10-16T04:42:17;2.67;;;0.83;;
15848;SDS011;8024;48.708;9.394;2022-10-16T04:44:44;2.87;;;1.00;;
15848;SDS011;8024;48.708;9.394;2022-10-16T04:47:11;1.10;;;0.80;;
15848;SDS011;8024;48.708;9.394;2022-10-16T04:49:40;2.00;;;0.70;;
15848;SDS011;8024;48.708;9.394;2022-10-16T04:52:07;1.60;;;1.20;;
15848;SDS011;8024;48.708;9.394;2022-10-16T04:54:34;4.27;;;1.37;;
15848;SDS011;8024;48.708;9.394;2022-10-16T04:57:01;1.87;;;1.37;;
15848;SDS011;8024;48.708;9.394;2022-10-16T04:59:29;1.17;;;1.17;;
15848;SDS011;8024;48.708;9.394;2022-10-16T05:01:57;2.40;;;1.53;;
15848;SDS011;8024;48.708;9.394;2022-10-16T05:04:24;2.60;;;1.50;;
15848;SDS011;8024;48.708;9.394;2022-10-16T05:06:52;5.13;;;1.60;;
15848;SDS011;8024;48.708;9.394;2022-10-16T05:09:19;7.40;;;1.80;;
15848;SDS011;8024;48.708;9.394;2022-10-16T05:11:46;4.80;;;1.73;;
15848;SDS011;8024;48.708;9.394;2022-10-16T05:14:13;5.30;;;1.50;;
15848;SDS011;8024;48.708;9.394;2022-10-16T05:16:41;3.10;;;1.50;;
15848;SDS011;8024;48.708;9.394;2022-10-16T05:19:08;1.50;;;1.20;;
15848;SDS011;8024;48.708;9.394;2022-10-16T05:21:35;5.00;;;1.67;;
15848;SDS011;8024;48.708;9.394;2022-10-16T05:24:04;3.13;;;1.60;;
15848;SDS011;8024;48.708;9.394;2022-10-16T05:26:31;1.93;;;1.33;;
15848;SDS011;8024;48.708;9.394;2022-10-16T05:28:58;1.97;;;1.43;;
15848;SDS011;8024;48.708;9.394;2022-10-16T05:31:25;1.30;;;1.17;;
15848;SDS011;8024;48.708;9.394;2022-10-16T05:33:57;2.43;;;0.80;;
15848;SDS011;8024;48.708;9.394;2022-10-16T05:36:25;4.87;;;1.00;;
15848;SDS011;8024;48.708;9.394;2022-10-16T05:38:52;3.43;;;1.47;;
15848;SDS011;8024;48.708;9.394;2022-10-16T05:41:21;6.13;;;2.53;;
15848;SDS011;8024;48.708;9.394;2022-10-16T05:43:50;3.97;;;1.07;;
15848;SDS011;8024;48.708;9.394;2022-10-16T05:46:18;1.93;;;0.90;;
15848;SDS011;8024;48.708;9.394;2022-10-16T05:48:45;1.90;;;0.60;;
15848;SDS011;8024;48.708;9.394;2022-10-16T05:51:13;3.17;;;0.60;;
15848;SDS011;8024;48.708;9.394;2022-10-16T05:53:40;0.77;;;0.50;;
15848;SDS011;8024;48.708;9.394;2022-10-16T05:56:09;2.73;;;0.67;;
15848;SDS011;8024;48.708;9.394;2022-10-16T05:58:39;3.97;;;0.70;;
15848;SDS011;8024;48.708;9.394;2022-10-16T06:01:07;2.03;;;0.57;;
15848;SDS011;8024;48.708;9.394;2022-10-16T06:03:36;4.37;;;0.70;;
15848;SDS011;8024;48.708;9.394;2022-10-16T06:06:09;1.80;;;0.50;;
15848;SDS011;8024;48.708;9.394;2022-10-16T06:08:38;2.30;;;0.80;;
15848;SDS011;8024;48.708;9.394;2022-10-16T06:11:06;3.73;;;0.93;;
15848;SDS011;8024;48.708;9.394;2022-10-16T06:13:35;3.50;;;1.00;;
15848;SDS011;8024;48.708;9.394;2022-10-16T06:16:05;1.60;;;0.77;;
15848;SDS011;8024;48.708;9.394;2022-10-16T06:18:33;5.17;;;0.90;;
15848;SDS011;8024;48.708;9.394;2022-10-16T06:21:06;7.47;;;1.27;;
15848;SDS011;8024;48.708;9.394;2022-10-16T06:23:34;2.60;;;0.90;;
15848;SDS011;8024;48.708;9.394;2022-10-16T06:26:05;3.63;;;0.80;;
15848;SDS011;8024;48.708;9.394;2022-10-16T06:28:33;2.70;;;0.87;;
15848;SDS011;8024;48.708;9.394;2022-10-16T06:31:00;3.13;;;0.90;;
15848;SDS011;8024;48.708;9.394;2022-10-16T06:33:29;5.03;;;0.80;;
15848;SDS011;8024;48.708;9.394;2022-10-16T06:36:01;1.57;;;0.87;;
15848;SDS011;8024;48.708;9.394;2022-10-16T06:38:29;1.57;;;0.70;;
15848;SDS011;8024;48.708;9.394;2022-10-16T06:40:56;0.90;;;0.90;;
15848;SDS011;8024;48.708;9.394;2022-10-16T06:43:23;1.80;;;0.87;;
15848;SDS011;8024;48.708;9.394;2022-10-16T06:45:51;2.17;;;1.07;;
15848;SDS011;8024;48.708;9.394;2022-10-16T06:48:19;3.13;;;1.00;;
15848;SDS011;8024;48.708;9.394;2022-10-16T06:50:56;2.57;;;0.90;;
15848;SDS011;8024;48.708;9.394;2022-10-16T06:53:23;1.90;;;0.93;;
15848;SDS011;8024;48.708;9.394;2022-10-16T06:55:51;0.97;;;0.87;;
15848;SDS011;8024;48.708;9.394;2022-10-16T06:58:18;6.73;;;1.30;;
15848;SDS011;8024;48.708;9.394;2022-10-16T07:00:46;2.57;;;1.13;;
15848;SDS011;8024;48.708;9.394;2022-10-16T07:03:14;2.07;;;1.00;;
15848;SDS011;8024;48.708;9.394;2022-10-16T07:05:41;4.80;;;0.90;;
15848;SDS011;8024;48.708;9.394;2022-10-16T07:08:10;2.30;;;0.80;;
15848;SDS011;8024;48.708;9.394;2022-10-16T07:10:37;2.17;;;1.10;;
15848;SDS011;8024;48.708;9.394;2022-10-16T07:13:04;5.17;;;1.27;;
15848;SDS011;8024;48.708;9.394;2022-10-16T07:15:32;3.67;;;0.97;;
15848;SDS011;8024;48.708;9.394;2022-10-16T07:18:00;1.83;;;1.10;;
15848;SDS011;8024;48.708;9.394;2022-10-16T07:20:27;3.20;;;0.97;;
15848;SDS011;8024;48.708;9.394;2022-10-16T07:22:54;5.83;;;1.37;;
15848;SDS011;8024;48.708;9.394;2022-10-16T07:25:22;3.37;;;1.33;;
15848;SDS011;8024;48.708;9.394;2022-10-16T07:27:50;4.13;;;1.13;;
15848;SDS011;8024;48.708;9.394;2022-10-16T07:30:17;5.13;;;1.30;;
15848;SDS011;8024;48.708;9.394;2022-10-16T07:32:44;3.53;;;1.80;;
15848;SDS011;8024;48.708;9.394;2022-10-16T07:35:11;7.40;;;1.83;;
15848;SDS011;8024;48.708;9.394;2022-10-16T07:37:38;1.77;;;1.63;;
15848;SDS011;8024;48.708;9.394;2022-10-16T07:40:10;6.17;;;2.07;;
15848;SDS011;8024;48.708;9.394;2022-10-16T07:42:38;4.23;;;2.30;;
15848;SDS011;8024;48.708;9.394;2022-10-16T07:45:06;2.87;;;2.57;;
15848;SDS011;8024;48.708;9.394;2022-10-16T07:47:34;6.13;;;3.17;;
15848;SDS011;8024;48.708;9.394;2022-10-16T07:50:01;7.60;;;2.40;;
15848;SDS011;8024;48.708;9.394;2022-10-16T07:52:28;3.20;;;2.10;;
15848;SDS011;8024;48.708;9.394;2022-10-16T07:54:55;3.73;;;1.50;;
15848;SDS011;8024;48.708;9.394;2022-10-16T07:57:23;2.43;;;1.80;;
15848;SDS011;8024;48.708;9.394;2022-10-16T07:59:51;3.13;;;2.03;;
15848;SDS011;8024;48.708;9.394;2022-10-16T08:02:18;11.50;;;2.43;;
15848;SDS011;8024;48.708;9.394;2022-10-16T08:04:46;4.77;;;2.30;;
15848;SDS011;8024;48.708;9.394;2022-10-16T08:07:13;2.53;;;2.00;;
15848;SDS011;8024;48.708;9.394;2022-10-16T08:09:40;3.67;;;1.70;;
15848;SDS011;8024;48.708;9.394;2022-10-16T08:12:07;5.47;;;1.43;;
15848;SDS011;8024;48.708;9.394;2022-10-16T08:14:35;3.90;;;1.40;;
15848;SDS011;8024;48.708;9.394;2022-10-16T08:17:04;4.37;;;1.13;;
15848;SDS011;8024;48.708;9.394;2022-10-16T08:19:31;4.63;;;1.00;;
15848;SDS011;8024;48.708;9.394;2022-10-16T08:21:59;5.23;;;1.20;;
15848;SDS011;8024;48.708;9.394;2022-10-16T08:24:26;2.50;;;1.40;;
15848;SDS011;8024;48.708;9.394;2022-10-16T08:26:55;1.63;;;0.87;;
15848;SDS011;8024;48.708;9.394;2022-10-16T08:29:22;3.60;;;1.30;;
15848;SDS011;8024;48.708;9.394;2022-10-16T08:31:50;3.93;;;1.00;;
15848;SDS011;8024;48.708;9.394;2022-10-16T08:34:18;2.53;;;1.57;;
15848;SDS011;8024;48.708;9.394;2022-10-16T08:36:45;5.13;;;1.57;;
15848;SDS011;8024;48.708;9.394;2022-10-16T08:39:12;3.30;;;1.60;;
15848;SDS011;8024;48.708;9.394;2022-10-16T08:41:51;2.03;;;1.30;;
15848;SDS011;8024;48.708;9.394;2022-10-16T08:44:41;1.43;;;1.33;;
15848;SDS011;8024;48.708;9.394;2022-10-16T08:47:22;1.90;;;1.20;;
15848;SDS011;8024;48.708;9.394;2022-10-16T08:49:55;4.00;;;1.27;;
15848;SDS011;8024;48.708;9.394;2022-10-16T08:52:24;4.83;;;0.90;;
15848;SDS011;8024;48.708;9.394;2022-10-16T08:54:55;2.87;;;0.80;;
15848;SDS011;8024;48.708;9.394;2022-10-16T08:57:24;2.37;;;0.80;;
15848;SDS011;8024;48.708;9.394;2022-10-16T08:59:52;1.87;;;0.83;;
15848;SDS011;8024;48.708;9.394;2022-10-16T09:02:26;4.27;;;1.70;;
15848;SDS011;8024;48.708;9.394;2022-10-16T09:05:16;4.13;;;1.53;;
15848;SDS011;8024;48.708;9.394;2022-10-16T09:07:50;2.87;;;0.97;;
15848;SDS011;8024;48.708;9.394;2022-10-16T09:10:27;2.50;;;1.00;;
15848;SDS011;8024;48.708;9.394;2022-10-16T09:13:07;3.00;;;1.10;;
15848;SDS011;8024;48.708;9.394;2022-10-16T09:15:42;4.00;;;1.60;;
15848;SDS011;8024;48.708;9.394;2022-10-16T09:18:18;3.57;;;1.13;;
15848;SDS011;8024;48.708;9.394;2022-10-16T09:20:53;2.67;;;1.47;;
15848;SDS011;8024;48.708;9.394;2022-10-16T09:23:28;3.70;;;0.70;;
15848;SDS011;8024;48.708;9.394;2022-10-16T09:25:57;3.10;;;0.77;;
15848;SDS011;8024;48.708;9.394;2022-10-16T09:28:25;2.47;;;0.77;;
15848;SDS011;8024;48.708;9.394;2022-10-16T09:30:52;4.70;;;0.70;;
15848;SDS011;8024;48.708;9.394;2022-10-16T09:33:20;0.70;;;0.60;;
15848;SDS011;8024;48.708;9.394;2022-10-16T09:35:50;2.90;;;0.80;;
15848;SDS011;8024;48.708;9.394;2022-10-16T09:38:21;1.90;;;0.50;;
15848;SDS011;8024;48.708;9.394;2022-10-16T09:40:49;1.80;;;0.60;;
15848;SDS011;8024;48.708;9.394;2022-10-16T09:43:20;4.23;;;1.03;;
15848;SDS011;8024;48.708;9.394;2022-10-16T09:45:56;1.53;;;0.50;;
15848;SDS011;8024;48.708;9.394;2022-10-16T09:48:25;2.47;;;0.83;;
15848;SDS011;8024;48.708;9.394;2022-10-16T09:50:59;4.40;;;0.60;;
15848;SDS011;8024;48.708;9.394;2022-10-16T09:53:42;1.07;;;0.70;;
15848;SDS011;8024;48.708;9.394;2022-10-16T09:56:10;4.47;;;0.70;;
15848;SDS011;8024;48.708;9.394;2022-10-16T09:58:49;1.00;;;0.60;;
15848;SDS011;8024;48.708;9.394;2022-10-16T10:01:17;2.83;;;0.80;;
15848;SDS011;8024;48.708;9.394;2022-10-16T10:03:45;4.53;;;0.73;;
15848;SDS011;8024;48.708;9.394;2022-10-16T10:06:19;4.73;;;0.70;;
15848;SDS011;8024;48.708;9.394;2022-10-16T10:08:59;4.30;;;1.00;;
15848;SDS011;8024;48.708;9.394;2022-10-16T10:11:38;1.53;;;0.77;;
15848;SDS011;8024;48.708;9.394;2022-10-16T10:14:20;2.20;;;0.60;;
15848;SDS011;8024;48.708;9.394;2022-10-16T10:16:49;4.23;;;1.03;;
15848;SDS011;8024;48.708;9.394;2022-10-16T10:19:18;3.73;;;1.00;;
15848;SDS011;8024;48.708;9.394;2022-10-16T10:21:47;2.67;;;0.80;;
15848;SDS011;8024;48.708;9.394;2022-10-16T10:24:16;1.83;;;0.70;;
15848;SDS011;8024;48.708;9.394;2022-10-16T10:26:52;2.87;;;0.87;;
15848;SDS011;8024;48.708;9.394;2022-10-16T10:29:26;4.50;;;0.93;;
15848;SDS011;8024;48.708;9.394;2022-10-16T10:32:06;1.10;;;0.70;;
15848;SDS011;8024;48.708;9.394;2022-10-16T10:34:46;1.23;;;0.70;;
15848;SDS011;8024;48.708;9.394;2022-10-16T10:37:30;1.40;;;0.50;;
15848;SDS011;8024;48.708;9.394;2022-10-16T10:40:09;1.77;;;0.80;;
15848;SDS011;8024;48.708;9.394;2022-10-16T10:42:49;1.47;;;0.70;;
15848;SDS011;8024;48.708;9.394;2022-10-16T10:45:24;2.43;;;0.90;;
15848;SDS011;8024;48.708;9.394;2022-10-16T10:47:57;1.60;;;0.77;;
15848;SDS011;8024;48.708;9.394;2022-10-16T10:50:41;2.00;;;0.70;;
15848;SDS011;8024;48.708;9.394;2022-10-16T10:53:21;6.70;;;1.00;;
15848;SDS011;8024;48.708;9.394;2022-10-16T10:55:59;0.70;;;0.70;;
15848;SDS011;8024;48.708;9.394;2022-10-16T10:58:40;2.73;;;0.73;;
15848;SDS011;8024;48.708;9.394;2022-10-16T11:01:21;1.00;;;0.80;;
15848;SDS011;8024;48.708;9.394;2022-10-16T11:04:00;1.00;;;0.57;;
15848;SDS011;8024;48.708;9.394;2022-10-16T11:07:04;5.80;;;1.13;;
15848;SDS011;8024;48.708;9.394;2022-10-16T11:09:36;0.40;;;0.40;;
15848;SDS011;8024;48.708;9.394;2022-10-16T11:12:07;1.00;;;0.50;;
15848;SDS011;8024;48.708;9.394;2022-10-16T11:14:40;0.93;;;0.53;;
15848;SDS011;8024;48.708;9.394;2022-10-16T11:17:13;2.73;;;0.73;;
15848;SDS011;8024;48.708;9.394;2022-10-16T11:19:44;1.93;;;0.60;;
15848;SDS011;8024;48.708;9.394;2022-10-16T11:22:15;2.10;;;0.60;;
15848;SDS011;8024;48.708;9.394;2022-10-16T11:24:48;2.80;;;0.67;;
15848;SDS011;8024;48.708;9.394;2022-10-16T11:27:22;2.10;;;0.50;;
15848;SDS011;8024;48.708;9.394;2022-10-16T11:29:55;0.97;;;0.50;;
15848;SDS011;8024;48.708;9.394;2022-10-16T11:32:27;1.40;;;0.70;;
15848;SDS011;8024;48.708;9.394;2022-10-16T11:34:59;1.03;;;0.30;;
15848;SDS011;8024;48.708;9.394;2022-10-16T11:37:36;2.97;;;0.47;;
15848;SDS011;8024;48.708;9.394;2022-10-16T11:40:14;1.90;;;0.50;;
15848;SDS011;8024;48.708;9.394;2022-10-16T11:42:48;0.40;;;0.40;;
15848;SDS011;8024;48.708;9.394;2022-10-16T11:45:23;0.97;;;0.30;;
15848;SDS011;8024;48.708;9.394;2022-10-16T11:47:54;1.27;;;0.40;;
15848;SDS011;8024;48.708;9.394;2022-10-16T11:50:28;1.30;;;0.40;;
15848;SDS011;8024;48.708;9.394;2022-10-16T11:53:00;1.50;;;0.50;;
15848;SDS011;8024;48.708;9.394;2022-10-16T11:55:33;1.90;;;0.57;;
15848;SDS011;8024;48.708;9.394;2022-10-16T11:58:03;1.13;;;0.50;;
15848;SDS011;8024;48.708;9.394;2022-10-16T12:00:36;1.70;;;0.73;;
15848;SDS011;8024;48.708;9.394;2022-10-16T12:03:11;2.00;;;0.50;;
15848;SDS011;8024;48.708;9.394;2022-10-16T12:05:50;0.90;;;0.50;;
15848;SDS011;8024;48.708;9.394;2022-10-16T12:08:24;1.23;;;0.57;;
15848;SDS011;8024;48.708;9.394;2022-10-16T12:10:53;2.20;;;0.60;;
15848;SDS011;8024;48.708;9.394;2022-10-16T12:13:33;2.10;;;0.47;;
15848;SDS011;8024;48.708;9.394;2022-10-16T12:16:06;1.90;;;0.70;;
15848;SDS011;8024;48.708;9.394;2022-10-16T12:18:46;1.03;;;0.30;;
15848;SDS011;8024;48.708;9.394;2022-10-16T12:21:15;1.03;;;0.40;;
15848;SDS011;8024;48.708;9.394;2022-10-16T12:23:47;1.70;;;0.60;;
15848;SDS011;8024;48.708;9.394;2022-10-16T12:26:25;2.30;;;0.40;;
15848;SDS011;8024;48.708;9.394;2022-10-16T12:28:53;1.83;;;0.40;;
15848;SDS011;8024;48.708;9.394;2022-10-16T12:31:20;2.63;;;0.60;;
15848;SDS011;8024;48.708;9.394;2022-10-16T12:33:54;0.63;;;0.40;;
15848;SDS011;8024;48.708;9.394;2022-10-16T12:36:27;1.27;;;0.40;;
15848;SDS011;8024;48.708;9.394;2022-10-16T12:38:56;1.50;;;0.53;;
15848;SDS011;8024;48.708;9.394;2022-10-16T12:41:26;1.77;;;0.70;;
15848;SDS011;8024;48.708;9.394;2022-10-16T12:43:54;0.93;;;0.40;;
15848;SDS011;8024;48.708;9.394;2022-10-16T12:46:34;2.63;;;0.40;;
15848;SDS011;8024;48.708;9.394;2022-10-16T12:49:05;1.17;;;0.40;;
15848;SDS011;8024;48.708;9.394;2022-10-16T12:51:49;1.37;;;0.60;;
15848;SDS011;8024;48.708;9.394;2022-10-16T12:54:18;1.47;;;0.40;;
15848;SDS011;8024;48.708;9.394;2022-10-16T12:56:51;4.03;;;0.60;;
15848;SDS011;8024;48.708;9.394;2022-10-16T12:59:32;2.20;;;0.50;;
15848;SDS011;8024;48.708;9.394;2022-10-16T13:02:16;0.87;;;0.43;;
15848;SDS011;8024;48.708;9.394;2022-10-16T13:05:11;3.03;;;0.50;;
15848;SDS011;8024;48.708;9.394;2022-10-16T13:07:51;2.60;;;0.60;;
15848;SDS011;8024;48.708;9.394;2022-10-16T13:10:25;1.20;;;0.40;;
15848;SDS011;8024;48.708;9.394;2022-10-16T13:13:02;0.60;;;0.40;;
15848;SDS011;8024;48.708;9.394;2022-10-16T13:18:28;1.97;;;0.30;;
15848;SDS011;8024;48.708;9.394;2022-10-16T13:21:03;1.60;;;0.40;;
15848;SDS011;8024;48.708;9.394;2022-10-16T13:23:44;1.03;;;0.50;;
15848;SDS011;8024;48.708;9.394;2022-10-16T13:26:22;1.53;;;0.63;;
15848;SDS011;8024;48.708;9.394;2022-10-16T13:28:59;2.10;;;0.40;;
15848;SDS011;8024;48.708;9.394;2022-10-16T13:31:27;1.87;;;0.30;;
15848;SDS011;8024;48.708;9.394;2022-10-16T13:33:56;1.07;;;0.40;;
15848;SDS011;8024;48.708;9.394;2022-10-16T13:36:25;1.13;;;0.40;;
15848;SDS011;8024;48.708;9.394;2022-10-16T13:39:00;0.30;;;0.30;;
15848;SDS011;8024;48.708;9.394;2022-10-16T13:41:35;0.50;;;0.50;;
15848;SDS011;8024;48.708;9.394;2022-10-16T13:44:04;1.17;;;0.40;;
15848;SDS011;8024;48.708;9.394;2022-10-16T13:46:35;1.13;;;0.57;;
15848;SDS011;8024;48.708;9.394;2022-10-16T13:49:03;0.53;;;0.40;;
15848;SDS011;8024;48.708;9.394;2022-10-16T13:51:31;1.70;;;0.70;;
15848;SDS011;8024;48.708;9.394;2022-10-16T13:53:59;1.53;;;0.50;;
15848;SDS011;8024;48.708;9.394;2022-10-16T13:56:27;0.87;;;0.50;;
15848;SDS011;8024;48.708;9.394;2022-10-16T13:58:59;1.30;;;0.77;;
15848;SDS011;8024;48.708;9.394;2022-10-16T14:01:28;0.90;;;0.60;;
15848;SDS011;8024;48.708;9.394;2022-10-16T14:04:00;4.00;;;0.70;;
15848;SDS011;8024;48.708;9.394;2022-10-16T14:06:30;1.30;;;0.40;;
15848;SDS011;8024;48.708;9.394;2022-10-16T14:08:59;1.70;;;0.50;;
15848;SDS011;8024;48.708;9.394;2022-10-16T14:11:30;1.67;;;0.60;;
15848;SDS011;8024;48.708;9.394;2022-10-16T14:13:58;1.53;;;0.67;;
15848;SDS011;8024;48.708;9.394;2022-10-16T14:16:28;1.07;;;0.73;;
15848;SDS011;8024;48.708;9.394;2022-10-16T14:18:57;0.57;;;0.47;;
15848;SDS011;8024;48.708;9.394;2022-10-16T14:21:26;1.23;;;0.50;;
15848;SDS011;8024;48.708;9.394;2022-10-16T14:23:54;1.10;;;0.60;;
15848;SDS011;8024;48.708;9.394;2022-10-16T14:26:22;2.97;;;0.50;;
15848;SDS011;8024;48.708;9.394;2022-10-16T14:29:01;3.43;;;0.50;;
15848;SDS011;8024;48.708;9.394;2022-10-16T14:31:37;2.30;;;0.60;;
15848;SDS011;8024;48.708;9.394;2022-10-16T14:36:58;1.53;;;0.83;;
15848;SDS011;8024;48.708;9.394;2022-10-16T14:39:31;3.23;;;0.70;;
15848;SDS011;8024;48.708;9.394;2022-10-16T14:41:59;3.30;;;0.77;;
15848;SDS011;8024;48.708;9.394;2022-10-16T14:44:28;2.13;;;0.47;;
15848;SDS011;8024;48.708;9.394;2022-10-16T14:47:05;2.57;;;0.80;;
15848;SDS011;8024;48.708;9.394;2022-10-16T14:49:35;2.07;;;0.60;;
15848;SDS011;8024;48.708;9.394;2022-10-16T14:52:04;1.70;;;0.40;;
15848;SDS011;8024;48.708;9.394;2022-10-16T14:54:34;1.07;;;0.60;;
15848;SDS011;8024;48.708;9.394;2022-10-16T14:57:02;0.70;;;0.60;;
15848;SDS011;8024;48.708;9.394;2022-10-16T14:59:30;5.70;;;0.80;;
15848;SDS011;8024;48.708;9.394;2022-10-16T15:02:01;1.27;;;0.60;;
15848;SDS011;8024;48.708;9.394;2022-10-16T15:04:42;1.67;;;1.27;;
15848;SDS011;8024;48.708;9.394;2022-10-16T15:07:09;3.40;;;0.80;;
15848;SDS011;8024;48.708;9.394;2022-10-16T15:09:36;1.83;;;0.80;;
15848;SDS011;8024;48.708;9.394;2022-10-16T15:12:04;2.97;;;0.50;;
15848;SDS011;8024;48.708;9.394;2022-10-16T15:14:31;2.37;;;0.53;;
15848;SDS011;8024;48.708;9.394;2022-10-16T15:17:00;1.47;;;0.80;;
15848;SDS011;8024;48.708;9.394;2022-10-16T15:19:27;2.00;;;0.90;;
15848;SDS011;8024;48.708;9.394;2022-10-16T15:21:54;3.00;;;0.90;;
15848;SDS011;8024;48.708;9.394;2022-10-16T15:24:22;3.43;;;0.80;;
15848;SDS011;8024;48.708;9.394;2022-10-16T15:26:49;3.43;;;0.60;;